• Join FlightAware (Why Join?)
  • Login
  • US Flag 
05:52AM EDT


 

Airport Tracker/Info


-or-


 

Live Flight TrackerFlight Track Log ✈ KAP444 ✈ 06-May-2013 ✈ KALB - KBOS

Flight Track Log - Related Links

Times and Time Zones

All times are in EDT time to prevent confusion due to time zone crossing. See the KAP444 flight status page for this flight to view local times or setup timezone preferences in your user account.

Time Position Orientation Groundspeed Altitude Reporting Facility
EDT Latitude Longitude Course Direction KTS MPH feet Rate Location/Type
08:39AM 42.7303 -73.7686 101° East 121 139 1,500  Level Boston Center
08:41AM 42.7439 -73.6728 79° East 129 148 2,400 480 Climbing Boston Center
08:42AM 42.7483 -73.6303 82° East 120 138 2,900 540 Climbing Boston Center
08:43AM 42.7531 -73.5825 82° East 123 142 3,500 540 Climbing Boston Center
08:44AM 42.7597 -73.5400 78° East 126 145 4,000 480 Climbing Boston Center
08:45AM 42.7644 -73.4950 82° East 125 144 4,500 480 Climbing Boston Center
08:46AM 42.7689 -73.4525 82° East 127 146 4,900 360 Climbing Boston Center
08:48AM 42.7667 -73.3802 90° East  Level FlightAware Approximate
08:48AM 42.7781 -73.3536 90° East 135 155 5,700  Level Boston Center
08:50AM 42.7543 -73.2844 104° East  Level FlightAware Approximate
08:52AM 42.7481 -73.1864 101° East 130 150 7,000  Level Boston Center
08:53AM 42.7381 -73.1356 105° East 136 157 7,100  Climbing Boston Center
08:54AM 42.7281 -73.0703 102° East 152 175 7,000 -60 Descending Boston Center
08:55AM 42.7178 -73.0222 106° East 152 175 7,000  Level Boston Center
08:56AM 42.7117 -72.9656 98° East 147 169 7,000  Level Boston Center
08:57AM 42.6893 -72.9251 101° East  Level FlightAware Approximate
08:57AM 42.7036 -72.9233 105° East 147 169 7,000  Level Boston Center
08:58AM 42.6914 -72.8581 104° East 147 169 7,000  Level Boston Center
08:59AM 42.6811 -72.8128 107° East 147 169 7,000  Level Boston Center
09:00AM 42.6708 -72.7394 101° East 147 169 7,000  Level Boston Center
09:02AM 42.6484 -72.6401 107° East  Level FlightAware Approximate
09:04AM 42.6297 -72.5106 106° East 147 169 7,000  Level Boston Center
09:06AM 42.6089 -72.3892 103° East 147 169 7,000  Level Boston Center
09:08AM 42.5919 -72.2878 103° East 147 169 7,000  Level Boston Center
09:09AM 42.5829 -72.2813 106° East  Level FlightAware Approximate
09:10AM 42.5656 -72.2004 106° East  Level FlightAware Approximate
09:11AM 42.5542 -72.1075 106° East 149 171 7,000  Level Boston Center
09:12AM 42.5456 -72.0539 102° East 149 171 7,000  Level Boston Center
09:13AM 42.5411 -71.9919 96° East 149 171 7,000  Level Boston Center
09:14AM 42.5328 -71.9414 103° East 149 171 7,000  Level Boston Center
09:16AM 42.5236 -71.8175 96° East 155 178 7,000  Level Boston Center
09:18AM 42.5125 -71.7022 97° East 155 178 7,000  Level Boston Center
09:19AM 42.5081 -71.6431 96° East 160 184 7,000  Level Boston Center
09:20AM 42.5000 -71.5667 98° East 157 181 7,100 60 Climbing KA90
09:21AM 42.5000 -71.5167 90° East 153 176 7,200 -300 Climbing KA90
09:23AM 42.4853 -71.4042 100° East 160 184 6,300 -600 Descending Boston Center
09:24AM 42.4833 -71.3167 92° East 184 212 5,500 -420 Descending KA90
09:26AM 42.4686 -71.2072 100° East 173 199 5,100 -240 Descending Boston Center
09:26AM 42.4667 -71.1833 96° East 162 186 5,100 60 Level KA90
09:27AM 42.4333 -71.1500 144° Southeast 149 171 5,200  Climbing KA90
09:28AM 42.4000 -71.1333 160° South 152 175 5,100 -540 Descending KA90
09:30AM 42.3808 -71.0673 98° East  Level Estimated
09:31AM 42.2667 -71.1500 98° East 182 209 3,300  Level KA90
09:33AM 42.3045 -71.0936 48° Northeast  Level Estimated
09:33AM 42.2667 -71.0500 48° Northeast 173 199 2,000  Level KA90
09:35AM 42.3164 -71.0275 270° West  Level Estimated
09:35AM 42.3333 -71.0167 270° West 134 154 700  Level KA90
09:37AM 42.3500 -71.0000 270° West  Level FlightAware Approximate
09:44AM 42.3630 -71.0064 270° West  Level Estimated